Time;durP1;ratioP1;P1;durP2;ratioP2;P2;SDS_P1;SDS_P2;PMS_P1;PMS_P2;Temp;Humidity;BMP_temperature;BMP_pressure;BME280_temperature;BME280_humidity;BME280_pressure;Samples;Min_cycle;Max_cycle;Signal;HPM_P1;HPM_P2
2023/10/28 00:01:14;;;;;;;35.47;22.15;;;10.70;99.90;;;;;;5108395;27;20080;-70
2023/10/28 00:03:40;;;;;;;34.00;22.08;;;10.80;99.90;;;;;;5137256;27;20047;-71
2023/10/28 00:06:07;;;;;;;30.27;21.80;;;10.70;99.90;;;;;;5135439;27;20536;-70
2023/10/28 00:08:33;;;;;;;35.47;23.23;;;10.60;99.90;;;;;;5106274;27;20071;-71
2023/10/28 00:11:00;;;;;;;40.33;23.27;;;10.60;99.90;;;;;;5105517;28;20046;-71
2023/10/28 00:13:26;;;;;;;31.63;21.10;;;10.60;99.90;;;;;;5105841;27;20051;-71
2023/10/28 00:15:52;;;;;;;36.60;23.70;;;10.60;99.90;;;;;;5104356;27;20402;-71
2023/10/28 00:18:17;;;;;;;35.25;23.90;;;10.60;99.90;;;;;;5135061;27;20042;-71
2023/10/28 00:20:44;;;;;;;33.90;22.75;;;10.60;99.90;;;;;;5103617;28;20046;-71
2023/10/28 00:23:11;;;;;;;32.53;22.60;;;10.50;99.90;;;;;;5106551;27;20036;-71
2023/10/28 00:25:37;;;;;;;33.90;22.98;;;10.60;99.90;;;;;;5138677;27;20559;-71
2023/10/28 00:28:03;;;;;;;35.67;24.13;;;10.60;99.90;;;;;;5108160;27;20083;-71
2023/10/28 00:30:29;;;;;;;35.47;23.05;;;10.60;99.90;;;;;;5138270;27;20039;-71
2023/10/28 00:33:02;;;;;;;35.50;23.35;;;10.60;99.90;;;;;;5107669;27;20047;-70
2023/10/28 00:35:28;;;;;;;36.80;22.55;;;10.50;99.90;;;;;;5099206;27;20104;-71
2023/10/28 00:37:54;;;;;;;30.95;21.33;;;10.60;99.90;;;;;;5129030;27;20047;-71
2023/10/28 00:40:20;;;;;;;37.72;23.42;;;10.60;99.90;;;;;;5131987;27;20031;-71
2023/10/28 00:42:46;;;;;;;34.08;22.30;;;10.60;99.90;;;;;;5104272;27;20394;-70
2023/10/28 00:45:13;;;;;;;36.58;23.20;;;10.60;99.90;;;;;;5103142;28;20505;-71
2023/10/28 00:47:43;;;;;;;38.47;21.50;;;10.50;99.90;;;;;;5107522;27;20046;-71
2023/10/28 00:50:10;;;;;;;36.25;23.40;;;10.50;99.90;;;;;;5104326;27;20474;-71
2023/10/28 00:52:39;;;;;;;34.97;22.23;;;10.60;99.90;;;;;;5101775;28;20050;-71
2023/10/28 00:55:09;;;;;;;31.23;22.23;;;10.50;99.90;;;;;;5105686;28;20043;-71
2023/10/28 00:57:35;;;;;;;36.33;22.60;;;10.50;99.90;;;;;;5109027;28;20498;-71
2023/10/28 01:00:01;;;;;;;39.13;22.90;;;10.50;99.90;;;;;;5102892;28;20046;-71
2023/10/28 01:02:27;;;;;;;37.25;23.40;;;10.40;99.90;;;;;;5104794;28;20401;-71
2023/10/28 01:04:53;;;;;;;35.17;21.58;;;10.40;99.90;;;;;;5105705;27;20040;-71
2023/10/28 01:07:19;;;;;;;32.67;21.02;;;10.40;99.90;;;;;;5104037;27;20428;-71
2023/10/28 01:09:46;;;;;;;33.10;20.73;;;10.30;99.90;;;;;;5102796;27;20039;-71
2023/10/28 01:12:15;;;;;;;31.17;20.77;;;10.30;99.90;;;;;;5106394;27;20383;-71
2023/10/28 01:14:41;;;;;;;32.67;20.70;;;10.30;99.90;;;;;;5131808;27;20085;-71
2023/10/28 01:17:13;;;;;;;32.63;19.52;;;10.20;99.90;;;;;;5106684;28;20045;-71
2023/10/28 01:19:39;;;;;;;28.08;19.80;;;10.20;99.90;;;;;;5104107;28;21166;-71
2023/10/28 01:22:05;;;;;;;33.92;20.67;;;10.30;99.90;;;;;;5136324;27;20043;-71
2023/10/28 01:24:32;;;;;;;31.10;19.50;;;10.20;99.90;;;;;;5100495;28;20058;-71
2023/10/28 01:26:59;;;;;;;28.35;19.00;;;10.10;99.90;;;;;;5102575;27;20089;-71
2023/10/28 01:29:25;;;;;;;29.83;18.63;;;10.20;99.90;;;;;;5101639;28;20670;-71
2023/10/28 01:31:51;;;;;;;29.40;20.40;;;10.10;99.90;;;;;;5106397;28;20051;-71
2023/10/28 01:34:16;;;;;;;29.38;19.08;;;10.10;99.90;;;;;;5106714;27;20102;-71
2023/10/28 01:36:43;;;;;;;33.63;20.45;;;10.10;99.90;;;;;;5104619;28;20031;-71
2023/10/28 01:39:12;;;;;;;28.95;18.40;;;10.10;99.90;;;;;;5103378;27;20044;-71
2023/10/28 01:41:38;;;;;;;30.98;18.92;;;10.10;99.90;;;;;;5102440;27;20427;-71
2023/10/28 01:44:04;;;;;;;32.60;19.60;;;10.00;99.90;;;;;;5103875;27;20067;-71
2023/10/28 01:46:30;;;;;;;32.33;20.52;;;10.10;99.90;;;;;;5104856;28;20039;-71
2023/10/28 01:48:56;;;;;;;31.90;20.15;;;10.10;99.90;;;;;;5110942;28;20070;-71
2023/10/28 01:51:21;;;;;;;31.48;18.95;;;10.00;99.90;;;;;;5103405;28;20031;-71
2023/10/28 01:53:47;;;;;;;28.02;19.95;;;10.00;99.90;;;;;;5106172;27;20085;-71
2023/10/28 01:56:13;;;;;;;32.70;20.00;;;9.90;99.90;;;;;;5107221;28;20069;-71
2023/10/28 01:58:38;;;;;;;30.88;19.55;;;10.00;99.90;;;;;;5102328;28;20126;-71
2023/10/28 02:01:04;;;;;;;29.73;18.27;;;10.00;99.90;;;;;;5105703;28;20091;-71
2023/10/28 02:03:30;;;;;;;32.40;19.75;;;9.90;99.90;;;;;;5102031;28;20051;-71
2023/10/28 02:05:56;;;;;;;30.60;19.70;;;9.90;99.90;;;;;;5103092;28;20039;-71
2023/10/28 02:08:21;;;;;;;24.10;17.63;;;9.80;99.90;;;;;;5100701;28;20135;-71
2023/10/28 02:10:47;;;;;;;29.70;17.52;;;9.90;99.90;;;;;;5123220;27;20035;-71
2023/10/28 02:13:13;;;;;;;30.92;17.65;;;9.90;99.90;;;;;;5103159;28;20396;-71
2023/10/28 02:15:38;;;;;;;25.25;16.88;;;9.80;99.90;;;;;;5106182;28;20038;-71
2023/10/28 02:18:04;;;;;;;26.08;17.27;;;9.80;99.90;;;;;;5104330;28;20067;-71
2023/10/28 02:20:30;;;;;;;33.35;18.77;;;9.80;99.90;;;;;;5103879;28;20032;-71
2023/10/28 02:22:56;;;;;;;30.40;16.63;;;9.80;99.90;;;;;;5105364;28;20036;-71
2023/10/28 02:25:23;;;;;;;21.02;14.80;;;9.80;99.90;;;;;;5134640;27;20039;-70
2023/10/28 02:27:49;;;;;;;19.70;14.50;;;9.70;99.90;;;;;;5103263;28;20039;-71
2023/10/28 02:30:16;;;;;;;24.38;15.57;;;9.70;99.90;;;;;;5101124;28;20596;-71
2023/10/28 02:32:41;;;;;;;24.08;15.05;;;9.70;99.90;;;;;;5102368;28;20572;-71
2023/10/28 02:35:07;;;;;;;24.23;14.75;;;9.70;99.90;;;;;;5101723;28;20031;-71
2023/10/28 02:37:33;;;;;;;24.23;15.23;;;9.70;99.90;;;;;;5104993;28;20051;-71
2023/10/28 02:39:58;;;;;;;21.77;13.40;;;9.70;99.90;;;;;;5134856;27;20047;-71
2023/10/28 02:42:24;;;;;;;19.92;13.40;;;9.50;99.90;;;;;;5133523;27;20142;-71
2023/10/28 02:44:51;;;;;;;22.20;13.30;;;9.60;99.90;;;;;;5103099;27;20055;-70
2023/10/28 02:47:17;;;;;;;19.40;13.13;;;9.60;99.90;;;;;;5103715;28;20031;-71
2023/10/28 02:49:42;;;;;;;22.73;13.95;;;9.60;99.90;;;;;;5109045;27;20036;-71
2023/10/28 02:52:08;;;;;;;24.90;13.93;;;9.60;99.90;;;;;;5109206;27;20051;-71
2023/10/28 02:54:37;;;;;;;25.13;13.25;;;9.60;99.90;;;;;;5108688;27;20034;-71
2023/10/28 02:57:03;;;;;;;24.60;13.57;;;9.60;99.90;;;;;;5109548;27;20039;-71
2023/10/28 02:59:29;;;;;;;19.80;13.35;;;9.60;99.90;;;;;;5105268;27;20039;-71
2023/10/28 03:01:55;;;;;;;21.02;13.05;;;9.50;99.90;;;;;;5108364;27;20035;-71
2023/10/28 03:04:21;;;;;;;22.25;13.95;;;9.50;99.90;;;;;;5138469;27;20044;-71
2023/10/28 03:06:47;;;;;;;20.13;12.80;;;9.50;99.90;;;;;;5109297;27;20062;-71
2023/10/28 03:09:12;;;;;;;22.05;12.85;;;9.50;99.90;;;;;;5104458;27;20040;-71
2023/10/28 03:11:38;;;;;;;19.75;13.27;;;9.50;99.90;;;;;;5108324;28;20058;-70
2023/10/28 03:14:04;;;;;;;21.40;13.13;;;9.50;99.90;;;;;;5105061;28;20540;-71
2023/10/28 03:16:31;;;;;;;17.60;12.27;;;9.50;99.90;;;;;;5135774;27;20033;-71
2023/10/28 03:18:57;;;;;;;17.70;12.32;;;9.40;99.90;;;;;;5105013;27;20081;-71
2023/10/28 03:21:23;;;;;;;23.63;13.02;;;9.50;99.90;;;;;;5105784;27;20128;-71
2023/10/28 03:23:49;;;;;;;24.17;13.05;;;9.40;99.90;;;;;;5105487;27;20067;-71
2023/10/28 03:26:15;;;;;;;19.63;13.25;;;9.40;99.90;;;;;;5106207;27;20167;-71
2023/10/28 03:28:41;;;;;;;23.80;12.73;;;9.40;99.90;;;;;;5103676;27;20036;-71
2023/10/28 03:31:10;;;;;;;22.05;13.20;;;9.40;99.90;;;;;;5105862;28;20040;-71
2023/10/28 03:33:40;;;;;;;23.30;14.68;;;9.40;99.90;;;;;;5104800;27;20122;-71
2023/10/28 03:36:06;;;;;;;22.33;12.98;;;9.60;99.90;;;;;;5139560;27;20067;-71
2023/10/28 03:38:34;;;;;;;19.70;13.30;;;9.40;99.90;;;;;;5107517;27;20040;-70
2023/10/28 03:41:06;;;;;;;20.65;13.30;;;9.40;99.90;;;;;;5103379;27;20420;-71
2023/10/28 03:43:32;;;;;;;27.95;14.20;;;9.40;99.90;;;;;;5136387;27;20397;-71
2023/10/28 03:45:57;;;;;;;21.02;12.68;;;9.40;99.90;;;;;;5105503;27;20047;-71
2023/10/28 03:48:23;;;;;;;18.30;12.38;;;9.40;99.90;;;;;;5106728;27;20035;-70
2023/10/28 03:51:00;;;;;;;19.30;13.00;;;9.40;99.90;;;;;;5105950;27;20031;-70
2023/10/28 03:53:26;;;;;;;18.92;13.10;;;9.40;99.90;;;;;;5104996;27;20044;-71
2023/10/28 03:55:52;;;;;;;24.92;13.00;;;9.50;99.90;;;;;;5103976;27;20050;-71
2023/10/28 03:58:17;;;;;;;25.15;14.35;;;9.50;99.90;;;;;;5135980;27;20047;-71
2023/10/28 04:00:43;;;;;;;27.50;13.82;;;9.50;99.90;;;;;;5106471;27;20092;-71
2023/10/28 04:03:09;;;;;;;24.15;13.35;;;9.50;99.90;;;;;;5107687;27;20028;-71
2023/10/28 04:05:34;;;;;;;20.90;12.88;;;9.50;99.90;;;;;;5105795;27;20379;-70
2023/10/28 04:08:00;;;;;;;26.27;14.05;;;9.50;99.90;;;;;;5104495;27;20042;-70
2023/10/28 04:10:26;;;;;;;23.17;13.43;;;9.60;99.90;;;;;;5102749;27;20036;-71
2023/10/28 04:12:51;;;;;;;25.23;13.50;;;9.50;99.90;;;;;;5135620;27;20490;-71
2023/10/28 04:15:18;;;;;;;24.20;13.75;;;9.60;99.90;;;;;;5105392;27;20070;-71
2023/10/28 04:17:44;;;;;;;24.80;13.68;;;9.60;99.90;;;;;;5108436;27;20047;-71
2023/10/28 04:20:10;;;;;;;23.23;13.70;;;9.60;99.90;;;;;;5104405;28;20040;-71
2023/10/28 04:22:36;;;;;;;25.10;15.57;;;9.60;99.90;;;;;;5106398;27;20044;-71
2023/10/28 04:25:03;;;;;;;26.30;14.57;;;9.70;99.90;;;;;;5105892;27;20870;-71
2023/10/28 04:27:29;;;;;;;30.27;15.30;;;9.60;99.90;;;;;;5103877;27;20524;-71
2023/10/28 04:29:55;;;;;;;27.52;15.38;;;9.60;99.90;;;;;;5103805;27;20089;-71
2023/10/28 04:32:22;;;;;;;24.25;15.60;;;9.70;99.90;;;;;;5107411;27;20127;-70
2023/10/28 04:34:49;;;;;;;21.17;14.85;;;9.70;99.90;;;;;;5139335;27;20031;-70
2023/10/28 04:37:15;;;;;;;29.80;16.42;;;9.70;99.90;;;;;;5136500;27;20043;-71
2023/10/28 04:39:41;;;;;;;26.05;15.40;;;9.70;99.90;;;;;;5105292;28;20058;-71
2023/10/28 04:42:07;;;;;;;31.88;15.50;;;9.70;99.90;;;;;;5104112;27;20041;-71
2023/10/28 04:44:33;;;;;;;31.17;17.42;;;9.70;99.90;;;;;;5136850;27;20046;-71
2023/10/28 04:46:59;;;;;;;24.15;15.52;;;9.70;99.90;;;;;;5103951;28;20463;-71
2023/10/28 04:49:25;;;;;;;29.73;16.80;;;9.80;99.90;;;;;;5106491;27;20067;-71
2023/10/28 04:51:51;;;;;;;26.60;14.93;;;9.80;99.90;;;;;;5104658;27;20039;-71
2023/10/28 04:54:17;;;;;;;29.08;15.60;;;9.80;99.90;;;;;;5102921;27;20512;-71
2023/10/28 04:56:43;;;;;;;29.30;16.30;;;9.80;99.90;;;;;;5101731;28;20040;-71
2023/10/28 04:59:10;;;;;;;34.45;15.25;;;9.80;99.90;;;;;;5105026;28;20493;-71
2023/10/28 05:01:35;;;;;;;28.95;16.67;;;9.90;99.90;;;;;;5102198;27;20070;-71
2023/10/28 05:04:01;;;;;;;24.08;14.95;;;9.80;99.90;;;;;;5104059;27;20067;-71
2023/10/28 05:06:26;;;;;;;25.70;15.38;;;9.90;99.90;;;;;;5102804;28;20038;-70
2023/10/28 05:08:52;;;;;;;29.90;15.70;;;9.90;99.90;;;;;;5132094;27;20616;-71
2023/10/28 05:11:17;;;;;;;26.35;16.13;;;9.90;99.90;;;;;;5102743;28;20036;-71
2023/10/28 05:13:43;;;;;;;33.65;16.00;;;9.90;99.90;;;;;;5103735;27;20035;-71
2023/10/28 05:16:09;;;;;;;26.17;15.80;;;10.00;99.90;;;;;;5103713;28;20051;-71
2023/10/28 05:18:36;;;;;;;21.25;15.15;;;10.00;99.90;;;;;;5101890;27;20096;-71
2023/10/28 05:21:01;;;;;;;28.15;15.30;;;10.00;99.90;;;;;;5104060;28;20047;-71
2023/10/28 05:23:27;;;;;;;25.45;15.63;;;10.00;99.90;;;;;;5104068;27;20493;-71
2023/10/28 05:25:53;;;;;;;26.92;15.35;;;10.10;99.90;;;;;;5105799;27;20053;-71
2023/10/28 05:28:19;;;;;;;28.35;16.52;;;10.10;99.90;;;;;;5100436;27;20036;-71
2023/10/28 05:30:48;;;;;;;27.25;14.77;;;10.10;99.90;;;;;;5103635;27;20058;-71
2023/10/28 05:33:13;;;;;;;21.73;14.82;;;10.10;99.90;;;;;;5106185;28;20039;-71
2023/10/28 05:35:39;;;;;;;24.77;14.77;;;10.00;99.90;;;;;;5102708;27;20039;-71
2023/10/28 05:38:05;;;;;;;25.77;14.63;;;10.10;99.90;;;;;;5133803;27;20043;-71
2023/10/28 05:40:31;;;;;;;24.33;12.85;;;10.10;99.90;;;;;;5103839;27;20069;-71
2023/10/28 05:42:57;;;;;;;25.65;14.55;;;10.10;99.90;;;;;;5131408;27;20081;-71
2023/10/28 05:45:23;;;;;;;23.45;13.52;;;10.10;99.90;;;;;;5136112;27;20044;-71
2023/10/28 05:47:48;;;;;;;25.08;14.07;;;10.10;99.90;;;;;;5101393;28;20062;-71
2023/10/28 05:50:14;;;;;;;23.88;13.82;;;10.10;99.90;;;;;;5101587;28;20047;-71
2023/10/28 05:52:40;;;;;;;22.45;12.98;;;10.10;99.90;;;;;;5104183;28;20036;-71
2023/10/28 05:55:11;;;;;;;20.80;13.57;;;10.10;99.90;;;;;;5101616;27;20115;-71
2023/10/28 05:57:36;;;;;;;23.90;13.15;;;10.20;99.90;;;;;;5100612;28;20044;-71
2023/10/28 06:00:02;;;;;;;20.20;12.45;;;10.20;99.90;;;;;;5106479;28;20045;-71
2023/10/28 06:02:28;;;;;;;19.63;12.75;;;10.20;99.90;;;;;;5105615;28;20066;-71
2023/10/28 06:04:53;;;;;;;17.58;12.27;;;10.20;99.90;;;;;;5103320;28;20035;-71
2023/10/28 06:07:19;;;;;;;18.77;12.00;;;10.20;99.90;;;;;;5103237;28;20401;-71
2023/10/28 06:09:45;;;;;;;22.90;12.55;;;10.20;99.90;;;;;;5130611;27;20472;-71
2023/10/28 06:12:13;;;;;;;17.63;11.30;;;10.20;99.90;;;;;;5097025;28;20491;-71
2023/10/28 06:14:41;;;;;;;18.67;10.88;;;10.20;99.90;;;;;;5131437;27;20039;-71
2023/10/28 06:17:06;;;;;;;19.60;11.32;;;10.20;99.90;;;;;;5101811;28;20043;-71
2023/10/28 06:19:32;;;;;;;20.25;11.07;;;10.30;99.90;;;;;;5136117;27;20039;-71
2023/10/28 06:21:57;;;;;;;23.10;11.52;;;10.30;99.90;;;;;;5108275;27;20056;-71
2023/10/28 06:24:23;;;;;;;15.95;10.05;;;10.30;99.90;;;;;;5110651;27;20501;-71
2023/10/28 06:26:51;;;;;;;17.83;9.63;;;10.30;99.90;;;;;;5107179;27;20139;-71
2023/10/28 06:29:16;;;;;;;20.20;10.38;;;10.30;99.90;;;;;;5106201;27;20126;-71
2023/10/28 06:31:44;;;;;;;14.15;9.30;;;10.30;99.90;;;;;;5105272;28;20460;-71
2023/10/28 06:34:10;;;;;;;18.85;9.60;;;10.30;99.90;;;;;;5107108;27;20040;-70
2023/10/28 06:36:35;;;;;;;8.85;7.95;;;10.30;99.90;;;;;;5108102;28;20373;-71
2023/10/28 06:39:02;;;;;;;16.95;9.55;;;10.30;99.90;;;;;;5105044;28;20043;-71
2023/10/28 06:41:28;;;;;;;12.52;8.27;;;10.30;99.90;;;;;;5104085;27;20155;-71
2023/10/28 06:43:53;;;;;;;12.30;8.30;;;10.30;99.90;;;;;;5105702;28;20126;-71
2023/10/28 06:46:19;;;;;;;15.77;8.95;;;10.30;99.90;;;;;;5104601;28;20044;-71
2023/10/28 06:48:46;;;;;;;15.30;8.52;;;10.30;99.90;;;;;;5106913;27;20389;-71
2023/10/28 06:51:12;;;;;;;14.93;8.50;;;10.30;99.90;;;;;;5106712;28;20039;-71
2023/10/28 06:53:40;;;;;;;12.10;7.90;;;10.30;99.90;;;;;;5105806;27;20070;-71
2023/10/28 06:56:07;;;;;;;12.63;7.68;;;10.30;99.90;;;;;;5109857;27;21043;-71
2023/10/28 06:58:32;;;;;;;13.80;7.60;;;10.30;99.90;;;;;;5137026;27;20048;-71
2023/10/28 07:00:58;;;;;;;14.32;7.57;;;10.40;99.90;;;;;;5107679;28;20997;-71
2023/10/28 07:03:24;;;;;;;10.63;7.43;;;10.30;99.90;;;;;;5110359;28;20454;-71
2023/10/28 07:05:49;;;;;;;11.18;7.63;;;10.30;99.90;;;;;;5106173;28;20024;-71
2023/10/28 07:08:15;;;;;;;11.05;7.78;;;10.30;99.90;;;;;;5105255;28;20035;-71
2023/10/28 07:10:41;;;;;;;9.10;6.60;;;10.30;99.90;;;;;;5105943;27;20406;-71
2023/10/28 07:13:06;;;;;;;9.00;6.10;;;10.30;99.90;;;;;;5102729;28;20039;-71
2023/10/28 07:15:32;;;;;;;10.15;5.97;;;10.40;99.90;;;;;;5104507;28;20139;-71
2023/10/28 07:17:58;;;;;;;12.15;6.50;;;10.30;99.90;;;;;;5136174;27;20458;-71
2023/10/28 07:20:24;;;;;;;9.75;6.10;;;10.40;99.90;;;;;;5104207;28;20451;-71
2023/10/28 07:22:50;;;;;;;8.77;5.50;;;10.30;99.90;;;;;;5103104;28;20047;-71
2023/10/28 07:25:15;;;;;;;8.82;5.20;;;10.30;99.90;;;;;;5106004;28;20039;-71
2023/10/28 07:27:41;;;;;;;9.32;6.22;;;10.40;99.90;;;;;;5105565;28;20042;-71
2023/10/28 07:30:10;;;;;;;7.88;5.47;;;10.40;99.90;;;;;;5131290;27;20132;-71
2023/10/28 07:32:36;;;;;;;8.07;5.60;;;10.30;99.90;;;;;;5104803;28;20105;-71
2023/10/28 07:35:02;;;;;;;6.68;4.70;;;10.30;99.90;;;;;;5136774;27;20055;-71
2023/10/28 07:37:27;;;;;;;7.85;4.85;;;10.70;99.90;;;;;;5104685;28;20043;-71
2023/10/28 07:39:53;;;;;;;8.00;5.07;;;10.30;99.90;;;;;;5106376;28;20384;-71
2023/10/28 07:42:20;;;;;;;6.57;5.13;;;10.30;99.90;;;;;;5104959;28;20067;-71
2023/10/28 07:44:46;;;;;;;6.20;4.78;;;10.30;99.90;;;;;;5109945;28;20487;-71
2023/10/28 07:47:12;;;;;;;8.77;4.88;;;10.30;99.90;;;;;;5106498;28;20154;-71
2023/10/28 07:49:37;;;;;;;7.60;6.07;;;10.30;99.90;;;;;;5104771;28;20039;-71
2023/10/28 07:52:03;;;;;;;10.40;6.43;;;10.40;99.90;;;;;;5105452;28;20081;-71
2023/10/28 07:54:29;;;;;;;10.18;6.13;;;10.30;99.90;;;;;;5125316;27;20394;-71
2023/10/28 07:56:54;;;;;;;7.68;6.07;;;10.40;99.90;;;;;;5109316;28;20086;-71
2023/10/28 07:59:21;;;;;;;9.32;5.13;;;10.50;99.90;;;;;;5104499;28;20039;-71
2023/10/28 08:01:47;;;;;;;10.35;4.60;;;10.50;99.90;;;;;;5104711;28;20048;-71
2023/10/28 08:04:14;;;;;;;6.05;4.18;;;10.60;99.90;;;;;;5103396;28;20117;-71
2023/10/28 08:06:42;;;;;;;10.13;5.20;;;10.60;99.90;;;;;;5119036;27;20048;-71
2023/10/28 08:09:08;;;;;;;5.82;4.10;;;10.60;99.90;;;;;;5101913;28;20054;-71
2023/10/28 08:11:34;;;;;;;6.93;3.90;;;10.60;99.90;;;;;;5102768;28;20036;-71
2023/10/28 08:14:03;;;;;;;8.82;3.95;;;10.60;99.90;;;;;;5104273;28;20040;-71
2023/10/28 08:16:28;;;;;;;8.77;4.20;;;10.70;99.90;;;;;;5105910;28;20062;-71
2023/10/28 08:18:55;;;;;;;6.10;3.60;;;10.90;99.90;;;;;;5101938;28;20047;-71
2023/10/28 08:21:21;;;;;;;5.82;3.80;;;10.80;99.90;;;;;;5107126;27;20136;-71
2023/10/28 08:23:47;;;;;;;6.00;3.25;;;10.80;99.90;;;;;;5104621;28;20051;-71
2023/10/28 08:26:17;;;;;;;7.10;4.03;;;10.70;99.90;;;;;;5105011;28;20406;-71
2023/10/28 08:28:55;;;;;;;7.90;4.07;;;10.80;99.90;;;;;;5101194;28;20157;-71
2023/10/28 08:31:20;;;;;;;7.00;3.45;;;10.80;99.90;;;;;;5101920;28;20656;-71
2023/10/28 08:33:50;;;;;;;4.95;3.60;;;10.80;99.90;;;;;;5109199;28;20039;-71
2023/10/28 08:36:16;;;;;;;5.72;3.92;;;10.90;99.90;;;;;;5103975;28;20032;-71
2023/10/28 08:38:41;;;;;;;9.57;3.47;;;10.90;99.90;;;;;;5102292;28;20042;-71
2023/10/28 08:41:08;;;;;;;7.47;3.72;;;10.90;99.90;;;;;;5100883;28;20403;-71
2023/10/28 08:43:34;;;;;;;6.35;2.70;;;10.80;99.90;;;;;;5103948;28;20055;-71
2023/10/28 08:46:02;;;;;;;5.82;3.53;;;10.90;99.90;;;;;;5106100;28;20040;-71
2023/10/28 08:48:28;;;;;;;6.40;2.80;;;10.80;99.90;;;;;;5102500;27;20047;-71
2023/10/28 08:50:56;;;;;;;5.65;2.83;;;10.90;99.90;;;;;;5106204;27;20091;-72
2023/10/28 08:53:22;;;;;;;5.88;3.30;;;10.90;99.90;;;;;;5105250;27;20038;-71
2023/10/28 08:55:52;;;;;;;6.18;2.85;;;10.90;99.90;;;;;;5105094;27;20036;-71
2023/10/28 08:58:19;;;;;;;6.40;2.85;;;10.90;99.90;;;;;;5102111;27;20046;-71
2023/10/28 09:00:50;;;;;;;5.22;3.15;;;10.90;99.90;;;;;;5105668;28;20039;-71
2023/10/28 09:13:48;;;;;;;6.82;3.63;;;11.00;99.90;;;;;;5099086;27;20392;-72
2023/10/28 09:16:16;;;;;;;6.97;3.03;;;11.10;99.90;;;;;;5080557;28;20089;-72
2023/10/28 09:18:43;;;;;;;9.60;3.55;;;11.20;99.90;;;;;;5116550;27;20478;-72
2023/10/28 09:21:10;;;;;;;4.28;2.92;;;11.10;99.90;;;;;;5084488;28;20036;-72
2023/10/28 09:23:39;;;;;;;6.28;3.30;;;11.20;99.90;;;;;;5083558;28;20040;-72
2023/10/28 09:26:06;;;;;;;5.85;3.13;;;11.20;99.90;;;;;;5084900;28;20105;-72
2023/10/28 09:28:32;;;;;;;8.73;3.13;;;11.30;99.90;;;;;;5085995;28;20044;-72
2023/10/28 09:30:59;;;;;;;5.72;2.78;;;11.30;99.90;;;;;;5084891;28;20033;-72
2023/10/28 09:33:25;;;;;;;6.50;2.95;;;11.40;99.90;;;;;;5096345;28;20040;-72
2023/10/28 09:35:55;;;;;;;10.70;3.70;;;11.50;99.90;;;;;;5083798;28;20570;-72
2023/10/28 09:38:21;;;;;;;4.15;2.95;;;11.50;99.90;;;;;;5083746;28;20422;-72
2023/10/28 09:40:47;;;;;;;4.93;2.42;;;11.70;99.90;;;;;;5085806;28;20075;-72
2023/10/28 09:43:15;;;;;;;6.90;3.00;;;11.70;99.90;;;;;;5083051;28;20040;-72
2023/10/28 09:45:45;;;;;;;9.40;3.55;;;11.70;99.90;;;;;;5084027;28;20118;-72
2023/10/28 09:48:14;;;;;;;5.00;2.40;;;11.70;99.90;;;;;;5083913;28;20036;-72
2023/10/28 09:50:52;;;;;;;4.63;2.30;;;11.70;99.90;;;;;;5118310;27;20044;-72
2023/10/28 09:53:29;;;;;;;7.15;2.70;;;11.70;99.90;;;;;;5082670;28;20380;-72
2023/10/28 09:55:56;;;;;;;6.38;2.65;;;11.70;99.90;;;;;;5080504;28;20048;-72
2023/10/28 09:58:33;;;;;;;5.78;2.45;;;11.70;99.90;;;;;;5083742;28;20491;-72
2023/10/28 10:01:27;;;;;;;8.65;2.40;;;11.70;99.90;;;;;;5085231;28;20036;-72
2023/10/28 10:04:31;;;;;;;8.05;2.38;;;11.70;99.90;;;;;;5082169;28;20085;-73
2023/10/28 10:06:57;;;;;;;11.23;2.90;;;11.70;99.90;;;;;;5083365;28;20495;-73
2023/10/28 10:09:23;;;;;;;7.95;3.50;;;11.70;99.90;;;;;;5083468;28;20070;-72
2023/10/28 10:11:49;;;;;;;4.72;2.58;;;11.70;99.90;;;;;;5085140;28;20467;-72
2023/10/28 10:14:17;;;;;;;7.03;2.88;;;11.70;99.90;;;;;;5103524;27;20056;-72
2023/10/28 10:16:59;;;;;;;7.57;2.50;;;11.80;99.90;;;;;;5068505;28;20135;-72
2023/10/28 10:19:33;;;;;;;6.95;2.47;;;11.80;99.90;;;;;;5069401;28;20124;-72
2023/10/28 10:22:02;;;;;;;5.60;2.03;;;11.80;99.90;;;;;;5066939;28;20528;-72
2023/10/28 10:24:28;;;;;;;9.20;2.78;;;11.80;99.90;;;;;;5071732;28;20059;-73
2023/10/28 10:26:59;;;;;;;4.13;2.38;;;11.70;99.90;;;;;;5069397;28;20127;-72
2023/10/28 10:29:29;;;;;;;6.50;2.22;;;11.80;99.90;;;;;;5068846;28;20114;-73
2023/10/28 10:31:58;;;;;;;4.03;2.28;;;11.80;99.90;;;;;;5100399;28;20105;-73
2023/10/28 10:34:33;;;;;;;5.47;2.30;;;11.80;99.90;;;;;;5069006;28;20058;-73
2023/10/28 10:37:00;;;;;;;4.07;1.90;;;11.80;99.90;;;;;;5069659;28;20413;-73
2023/10/28 10:39:26;;;;;;;9.27;2.25;;;11.80;99.90;;;;;;5069140;28;20041;-73
2023/10/28 10:41:56;;;;;;;5.57;1.95;;;11.80;99.90;;;;;;5069215;28;20045;-73
2023/10/28 10:44:36;;;;;;;5.03;1.75;;;11.90;99.90;;;;;;5070393;28;20047;-73
2023/10/28 10:47:03;;;;;;;5.88;2.70;;;12.00;99.90;;;;;;5068534;28;20036;-73
2023/10/28 10:49:30;;;;;;;5.60;1.85;;;11.90;99.90;;;;;;5068700;28;20055;-72
2023/10/28 10:51:58;;;;;;;5.78;1.80;;;12.00;99.90;;;;;;5067500;28;20072;-73
2023/10/28 10:54:30;;;;;;;6.50;2.15;;;12.10;99.90;;;;;;5069213;28;20071;-73
2023/10/28 10:56:56;;;;;;;4.40;1.80;;;12.10;99.90;;;;;;5069384;28;20131;-73
2023/10/28 10:59:22;;;;;;;7.03;1.95;;;12.10;99.90;;;;;;5099560;28;20048;-73
2023/10/28 11:01:48;;;;;;;9.18;1.92;;;12.20;99.90;;;;;;5069426;28;20475;-73
2023/10/28 11:04:14;;;;;;;6.80;2.10;;;12.20;99.90;;;;;;5070532;28;20045;-73
2023/10/28 11:06:39;;;;;;;8.13;1.30;;;12.30;99.90;;;;;;5070395;28;20037;-72
2023/10/28 11:09:06;;;;;;;5.50;2.38;;;12.30;99.90;;;;;;5068052;28;20040;-73
2023/10/28 11:11:38;;;;;;;5.25;1.92;;;12.40;99.90;;;;;;5101600;27;20487;-73
2023/10/28 11:14:04;;;;;;;6.43;1.50;;;12.40;99.90;;;;;;5067448;28;20051;-72
2023/10/28 11:16:31;;;;;;;9.43;2.05;;;12.40;99.90;;;;;;5066486;28;20060;-72
2023/10/28 11:18:59;;;;;;;5.05;1.42;;;12.50;99.90;;;;;;5067648;28;20036;-72
2023/10/28 11:21:26;;;;;;;6.57;1.85;;;12.60;99.90;;;;;;5069255;28;20119;-73
2023/10/28 11:23:55;;;;;;;4.60;1.80;;;12.50;99.90;;;;;;5064931;28;20047;-72
2023/10/28 11:26:22;;;;;;;4.47;1.15;;;12.80;99.90;;;;;;5067048;28;20112;-72
2023/10/28 11:28:48;;;;;;;6.05;1.50;;;12.70;99.90;;;;;;5097263;28;20119;-73
2023/10/28 11:31:14;;;;;;;4.80;1.83;;;12.70;99.90;;;;;;5066064;28;20143;-72
2023/10/28 11:33:43;;;;;;;3.40;1.40;;;12.80;99.90;;;;;;5066546;28;20052;-72
2023/10/28 11:36:09;;;;;;;4.25;1.63;;;12.70;99.90;;;;;;5068512;28;20071;-72
2023/10/28 11:38:34;;;;;;;5.05;1.90;;;12.70;99.90;;;;;;5068474;28;20040;-72
2023/10/28 11:41:07;;;;;;;3.00;1.00;;;12.80;99.90;;;;;;5069133;28;20028;-72
2023/10/28 11:43:34;;;;;;;7.88;1.52;;;12.80;99.90;;;;;;5098543;28;20041;-72
2023/10/28 11:45:59;;;;;;;7.82;2.00;;;12.90;99.90;;;;;;5067705;28;20086;-72
2023/10/28 11:48:26;;;;;;;3.97;1.55;;;12.80;99.90;;;;;;5087696;28;20048;-72
2023/10/28 11:50:51;;;;;;;7.97;1.60;;;12.80;99.90;;;;;;5084574;28;20036;-72
2023/10/28 11:53:23;;;;;;;4.25;1.33;;;12.90;99.90;;;;;;5067898;28;20506;-72
2023/10/28 11:55:48;;;;;;;3.22;1.13;;;12.90;99.90;;;;;;5070169;28;20051;-72
2023/10/28 11:58:14;;;;;;;5.88;1.05;;;12.90;99.90;;;;;;5065737;28;20040;-72
2023/10/28 12:00:40;;;;;;;7.40;1.88;;;12.90;99.90;;;;;;5068240;28;20032;-72
2023/10/28 12:03:06;;;;;;;5.38;1.17;;;12.90;99.90;;;;;;5067843;28;20076;-72
2023/10/28 12:05:33;;;;;;;3.75;1.02;;;12.90;99.90;;;;;;5071186;28;20514;-72
2023/10/28 12:07:59;;;;;;;6.05;1.50;;;12.90;99.90;;;;;;5068465;28;20045;-72
2023/10/28 12:10:25;;;;;;;4.70;1.20;;;12.80;99.90;;;;;;5068059;28;20039;-72
2023/10/28 12:12:51;;;;;;;4.97;0.93;;;12.80;99.90;;;;;;5064603;28;20052;-72
2023/10/28 12:15:17;;;;;;;6.30;1.25;;;12.80;99.90;;;;;;5067273;28;20044;-72
2023/10/28 12:17:44;;;;;;;3.78;1.45;;;12.80;99.90;;;;;;5067618;28;20052;-72
2023/10/28 12:20:14;;;;;;;5.53;1.33;;;12.90;99.90;;;;;;5067990;28;20037;-72
2023/10/28 12:22:40;;;;;;;8.68;1.20;;;12.90;99.90;;;;;;5065054;28;20098;-72
2023/10/28 12:25:09;;;;;;;4.55;1.15;;;12.90;99.90;;;;;;5063795;28;20037;-72
2023/10/28 12:27:36;;;;;;;5.20;1.17;;;12.90;99.90;;;;;;5057635;28;20090;-72
2023/10/28 12:30:06;;;;;;;6.82;1.60;;;12.90;99.90;;;;;;5060854;28;20040;-72
2023/10/28 12:32:34;;;;;;;4.55;1.00;;;12.90;99.90;;;;;;5094869;28;20052;-72
2023/10/28 12:35:00;;;;;;;6.35;1.60;;;12.80;99.90;;;;;;5064748;28;20040;-72
2023/10/28 12:37:29;;;;;;;5.68;0.95;;;12.80;99.90;;;;;;5063117;28;20051;-72
2023/10/28 12:39:55;;;;;;;5.82;1.23;;;12.80;99.90;;;;;;5092352;27;20036;-72
2023/10/28 12:42:21;;;;;;;6.15;1.20;;;12.80;99.90;;;;;;5060334;28;20048;-72
2023/10/28 12:44:46;;;;;;;2.45;0.73;;;12.90;99.90;;;;;;5062096;28;20551;-72
2023/10/28 12:47:12;;;;;;;5.32;1.25;;;13.00;99.90;;;;;;5062593;28;20048;-72